sensor_id;sensor_type;location;lat;lon;timestamp;pressure;altitude;pressure_sealevel;temperature;humidity
81274;BME280;70753;47.908;11.274;2023-09-18T00:02:14;94453.59;;;20.82;63.70
81274;BME280;70753;47.908;11.274;2023-09-18T00:04:39;94443.59;;;20.86;63.57
81274;BME280;70753;47.908;11.274;2023-09-18T00:07:05;94450.19;;;20.85;63.57
81274;BME280;70753;47.908;11.274;2023-09-18T00:09:30;94446.38;;;20.70;64.44
81274;BME280;70753;47.908;11.274;2023-09-18T00:11:55;94452.88;;;20.66;64.43
81274;BME280;70753;47.908;11.274;2023-09-18T00:14:21;94444.88;;;20.73;63.94
81274;BME280;70753;47.908;11.274;2023-09-18T00:16:48;94446.63;;;20.81;63.90
81274;BME280;70753;47.908;11.274;2023-09-18T00:19:13;94439.63;;;20.80;63.65
81274;BME280;70753;47.908;11.274;2023-09-18T00:21:38;94438.06;;;20.79;63.76
81274;BME280;70753;47.908;11.274;2023-09-18T00:24:04;94432.66;;;20.79;63.72
81274;BME280;70753;47.908;11.274;2023-09-18T00:26:30;94429.63;;;20.64;64.16
81274;BME280;70753;47.908;11.274;2023-09-18T00:28:55;94427.63;;;20.61;64.27
81274;BME280;70753;47.908;11.274;2023-09-18T00:31:20;94420.06;;;20.71;64.05
81274;BME280;70753;47.908;11.274;2023-09-18T00:33:47;94423.94;;;20.70;63.63
81274;BME280;70753;47.908;11.274;2023-09-18T00:36:12;94417.50;;;20.58;64.18
81274;BME280;70753;47.908;11.274;2023-09-18T00:38:38;94414.72;;;20.55;63.92
81274;BME280;70753;47.908;11.274;2023-09-18T00:41:04;94422.56;;;20.44;64.08
81274;BME280;70753;47.908;11.274;2023-09-18T00:43:29;94412.00;;;20.55;63.90
81274;BME280;70753;47.908;11.274;2023-09-18T00:45:55;94410.16;;;20.59;63.49
81274;BME280;70753;47.908;11.274;2023-09-18T00:48:21;94408.06;;;20.52;64.33
81274;BME280;70753;47.908;11.274;2023-09-18T00:50:48;94403.78;;;20.51;63.88
81274;BME280;70753;47.908;11.274;2023-09-18T00:53:17;94398.38;;;20.51;63.96
81274;BME280;70753;47.908;11.274;2023-09-18T00:55:43;94403.91;;;20.39;64.21
81274;BME280;70753;47.908;11.274;2023-09-18T00:58:10;94409.41;;;20.43;64.12
81274;BME280;70753;47.908;11.274;2023-09-18T01:00:35;94410.44;;;20.38;64.21
81274;BME280;70753;47.908;11.274;2023-09-18T01:03:01;94413.09;;;20.35;63.80
81274;BME280;70753;47.908;11.274;2023-09-18T01:05:27;94403.06;;;20.35;64.13
81274;BME280;70753;47.908;11.274;2023-09-18T01:07:54;94399.63;;;20.38;63.96
81274;BME280;70753;47.908;11.274;2023-09-18T01:10:23;94404.94;;;20.50;63.49
81274;BME280;70753;47.908;11.274;2023-09-18T01:12:54;94394.84;;;20.32;63.88
81274;BME280;70753;47.908;11.274;2023-09-18T01:15:22;94400.25;;;20.16;64.02
81274;BME280;70753;47.908;11.274;2023-09-18T01:17:50;94395.34;;;20.37;63.69
81274;BME280;70753;47.908;11.274;2023-09-18T01:20:15;94392.97;;;20.36;63.73
81274;BME280;70753;47.908;11.274;2023-09-18T01:22:44;94401.38;;;20.46;62.91
81274;BME280;70753;47.908;11.274;2023-09-18T01:25:09;94390.63;;;20.34;63.70
81274;BME280;70753;47.908;11.274;2023-09-18T01:27:35;94402.75;;;20.40;63.23
81274;BME280;70753;47.908;11.274;2023-09-18T01:30:00;94396.91;;;20.38;63.73
81274;BME280;70753;47.908;11.274;2023-09-18T01:32:28;94386.81;;;20.35;63.50
81274;BME280;70753;47.908;11.274;2023-09-18T01:34:55;94379.19;;;20.41;63.16
81274;BME280;70753;47.908;11.274;2023-09-18T01:37:24;94377.34;;;20.45;62.97
81274;BME280;70753;47.908;11.274;2023-09-18T01:39:53;94361.00;;;20.22;63.77
81274;BME280;70753;47.908;11.274;2023-09-18T01:42:19;94370.22;;;20.21;63.82
81274;BME280;70753;47.908;11.274;2023-09-18T01:44:46;94366.63;;;20.17;63.86
81274;BME280;70753;47.908;11.274;2023-09-18T01:47:14;94362.09;;;20.21;64.03
81274;BME280;70753;47.908;11.274;2023-09-18T01:49:40;94366.75;;;20.05;63.81
81274;BME280;70753;47.908;11.274;2023-09-18T01:52:07;94356.44;;;19.95;64.34
81274;BME280;70753;47.908;11.274;2023-09-18T01:54:33;94361.47;;;20.12;63.45
81274;BME280;70753;47.908;11.274;2023-09-18T01:57:01;94359.22;;;20.14;63.41
81274;BME280;70753;47.908;11.274;2023-09-18T01:59:27;94358.09;;;20.31;62.41
81274;BME280;70753;47.908;11.274;2023-09-18T02:01:53;94362.88;;;20.37;62.20
81274;BME280;70753;47.908;11.274;2023-09-18T02:04:18;94353.53;;;20.19;62.54
81274;BME280;70753;47.908;11.274;2023-09-18T02:06:44;94356.00;;;20.24;62.18
81274;BME280;70753;47.908;11.274;2023-09-18T02:09:10;94359.84;;;20.23;62.35
81274;BME280;70753;47.908;11.274;2023-09-18T02:11:37;94351.03;;;20.26;62.15
81274;BME280;70753;47.908;11.274;2023-09-18T02:14:04;94353.03;;;20.14;62.46
81274;BME280;70753;47.908;11.274;2023-09-18T02:16:30;94349.97;;;20.15;62.09
81274;BME280;70753;47.908;11.274;2023-09-18T02:18:55;94345.97;;;20.25;62.11
81274;BME280;70753;47.908;11.274;2023-09-18T02:21:21;94340.41;;;20.37;61.94
81274;BME280;70753;47.908;11.274;2023-09-18T02:23:48;94340.63;;;20.28;62.33
81274;BME280;70753;47.908;11.274;2023-09-18T02:26:15;94330.66;;;20.32;61.76
81274;BME280;70753;47.908;11.274;2023-09-18T02:28:40;94334.41;;;20.12;62.64
81274;BME280;70753;47.908;11.274;2023-09-18T02:31:07;94333.19;;;20.25;62.73
81274;BME280;70753;47.908;11.274;2023-09-18T02:33:32;94341.59;;;20.20;61.96
81274;BME280;70753;47.908;11.274;2023-09-18T02:35:57;94332.69;;;20.04;62.01
81274;BME280;70753;47.908;11.274;2023-09-18T02:38:23;94332.38;;;19.90;61.86
81274;BME280;70753;47.908;11.274;2023-09-18T02:40:48;94328.00;;;20.01;61.29
81274;BME280;70753;47.908;11.274;2023-09-18T02:43:13;94321.19;;;20.07;61.19
81274;BME280;70753;47.908;11.274;2023-09-18T02:45:39;94322.19;;;20.18;61.10
81274;BME280;70753;47.908;11.274;2023-09-18T02:48:06;94310.03;;;20.28;60.52
81274;BME280;70753;47.908;11.274;2023-09-18T02:50:32;94310.69;;;20.21;60.28
81274;BME280;70753;47.908;11.274;2023-09-18T02:52:58;94299.38;;;20.00;61.09
81274;BME280;70753;47.908;11.274;2023-09-18T02:55:24;94290.38;;;19.96;61.29
81274;BME280;70753;47.908;11.274;2023-09-18T02:57:49;94282.28;;;20.15;60.31
81274;BME280;70753;47.908;11.274;2023-09-18T03:00:15;94281.19;;;20.16;61.08
81274;BME280;70753;47.908;11.274;2023-09-18T03:02:41;94286.59;;;20.16;60.77
81274;BME280;70753;47.908;11.274;2023-09-18T03:05:08;94279.59;;;20.15;60.47
81274;BME280;70753;47.908;11.274;2023-09-18T03:07:34;94284.56;;;20.29;59.55
81274;BME280;70753;47.908;11.274;2023-09-18T03:09:59;94282.72;;;20.17;60.36
81274;BME280;70753;47.908;11.274;2023-09-18T03:12:24;94276.56;;;19.82;61.06
81274;BME280;70753;47.908;11.274;2023-09-18T03:14:50;94280.28;;;20.12;59.11
81274;BME280;70753;47.908;11.274;2023-09-18T03:17:16;94278.53;;;19.85;60.64
81274;BME280;70753;47.908;11.274;2023-09-18T03:19:41;94289.16;;;19.94;60.58
81274;BME280;70753;47.908;11.274;2023-09-18T03:22:08;94287.63;;;19.77;60.90
81274;BME280;70753;47.908;11.274;2023-09-18T03:24:33;94285.16;;;19.87;60.62
81274;BME280;70753;47.908;11.274;2023-09-18T03:26:59;94287.56;;;20.08;60.32
81274;BME280;70753;47.908;11.274;2023-09-18T03:29:24;94278.75;;;20.11;60.32
81274;BME280;70753;47.908;11.274;2023-09-18T03:31:49;94270.59;;;19.92;60.71
81274;BME280;70753;47.908;11.274;2023-09-18T03:34:15;94270.88;;;20.06;60.25
81274;BME280;70753;47.908;11.274;2023-09-18T03:36:40;94259.63;;;20.04;60.24
81274;BME280;70753;47.908;11.274;2023-09-18T03:39:07;94257.78;;;20.08;60.48
81274;BME280;70753;47.908;11.274;2023-09-18T03:41:32;94252.25;;;20.01;60.67
81274;BME280;70753;47.908;11.274;2023-09-18T03:43:58;94244.56;;;20.03;60.35
81274;BME280;70753;47.908;11.274;2023-09-18T03:46:24;94248.53;;;19.90;61.12
81274;BME280;70753;47.908;11.274;2023-09-18T03:48:49;94238.19;;;19.61;61.67
81274;BME280;70753;47.908;11.274;2023-09-18T03:51:15;94238.91;;;19.58;61.88
81274;BME280;70753;47.908;11.274;2023-09-18T03:53:40;94240.75;;;19.38;62.24
81274;BME280;70753;47.908;11.274;2023-09-18T03:56:07;94231.41;;;19.67;61.50
81274;BME280;70753;47.908;11.274;2023-09-18T03:58:32;94225.25;;;19.70;61.50
81274;BME280;70753;47.908;11.274;2023-09-18T04:00:58;94213.41;;;19.59;61.62
81274;BME280;70753;47.908;11.274;2023-09-18T04:03:24;94225.88;;;19.63;61.63
81274;BME280;70753;47.908;11.274;2023-09-18T04:05:49;94215.69;;;19.57;61.46
81274;BME280;70753;47.908;11.274;2023-09-18T04:08:15;94222.19;;;19.71;61.34
81274;BME280;70753;47.908;11.274;2023-09-18T04:10:40;94216.16;;;19.78;61.21
81274;BME280;70753;47.908;11.274;2023-09-18T04:13:07;94212.25;;;19.75;61.58
81274;BME280;70753;47.908;11.274;2023-09-18T04:15:32;94208.03;;;19.78;61.43
81274;BME280;70753;47.908;11.274;2023-09-18T04:17:58;94210.13;;;19.84;61.17
81274;BME280;70753;47.908;11.274;2023-09-18T04:20:23;94217.75;;;19.79;61.51
81274;BME280;70753;47.908;11.274;2023-09-18T04:23:19;94220.28;;;19.72;61.89
81274;BME280;70753;47.908;11.274;2023-09-18T04:25:45;94221.72;;;19.85;61.17
81274;BME280;70753;47.908;11.274;2023-09-18T04:28:12;94218.66;;;19.86;61.29
81274;BME280;70753;47.908;11.274;2023-09-18T04:30:37;94216.00;;;19.52;62.11
81274;BME280;70753;47.908;11.274;2023-09-18T04:33:03;94217.88;;;19.67;61.98
81274;BME280;70753;47.908;11.274;2023-09-18T04:35:28;94218.97;;;19.81;61.15
81274;BME280;70753;47.908;11.274;2023-09-18T04:37:55;94222.13;;;19.68;61.74
81274;BME280;70753;47.908;11.274;2023-09-18T04:40:21;94216.72;;;19.68;61.70
81274;BME280;70753;47.908;11.274;2023-09-18T04:42:46;94220.31;;;19.56;62.30
81274;BME280;70753;47.908;11.274;2023-09-18T04:45:13;94228.56;;;19.79;61.75
81274;BME280;70753;47.908;11.274;2023-09-18T04:47:39;94226.63;;;19.45;62.84
81274;BME280;70753;47.908;11.274;2023-09-18T04:50:05;94211.16;;;19.61;62.17
81274;BME280;70753;47.908;11.274;2023-09-18T04:52:30;94211.09;;;19.57;62.91
81274;BME280;70753;47.908;11.274;2023-09-18T04:54:56;94210.47;;;19.64;62.28
81274;BME280;70753;47.908;11.274;2023-09-18T04:57:21;94213.88;;;19.80;61.68
81274;BME280;70753;47.908;11.274;2023-09-18T04:59:46;94221.59;;;19.43;63.04
81274;BME280;70753;47.908;11.274;2023-09-18T05:02:13;94214.09;;;19.71;62.39
81274;BME280;70753;47.908;11.274;2023-09-18T05:04:38;94211.19;;;19.80;62.33
81274;BME280;70753;47.908;11.274;2023-09-18T05:07:04;94213.88;;;19.80;61.93
81274;BME280;70753;47.908;11.274;2023-09-18T05:09:29;94220.41;;;19.95;62.00
81274;BME280;70753;47.908;11.274;2023-09-18T05:11:55;94219.63;;;19.94;61.96
81274;BME280;70753;47.908;11.274;2023-09-18T05:14:20;94216.97;;;19.63;62.48
81274;BME280;70753;47.908;11.274;2023-09-18T05:16:45;94224.75;;;19.99;61.13
81274;BME280;70753;47.908;11.274;2023-09-18T05:19:13;94229.81;;;20.01;61.46
81274;BME280;70753;47.908;11.274;2023-09-18T05:21:38;94217.41;;;20.00;61.19
81274;BME280;70753;47.908;11.274;2023-09-18T05:24:04;94214.34;;;20.01;61.40
81274;BME280;70753;47.908;11.274;2023-09-18T05:26:30;94224.19;;;20.09;61.22
81274;BME280;70753;47.908;11.274;2023-09-18T05:28:56;94216.28;;;20.20;60.92
81274;BME280;70753;47.908;11.274;2023-09-18T05:31:22;94215.59;;;20.23;61.12
81274;BME280;70753;47.908;11.274;2023-09-18T05:33:48;94216.66;;;20.37;61.05
81274;BME280;70753;47.908;11.274;2023-09-18T05:36:15;94215.22;;;20.43;60.71
81274;BME280;70753;47.908;11.274;2023-09-18T05:38:41;94214.38;;;20.39;61.42
81274;BME280;70753;47.908;11.274;2023-09-18T05:41:07;94224.19;;;20.09;62.55
81274;BME280;70753;47.908;11.274;2023-09-18T05:43:32;94222.50;;;20.20;62.54
81274;BME280;70753;47.908;11.274;2023-09-18T05:45:58;94229.03;;;20.38;61.67
81274;BME280;70753;47.908;11.274;2023-09-18T05:48:24;94213.78;;;20.49;61.03
81274;BME280;70753;47.908;11.274;2023-09-18T05:50:50;94228.97;;;20.35;61.84
81274;BME280;70753;47.908;11.274;2023-09-18T05:53:17;94226.31;;;20.57;61.83
81274;BME280;70753;47.908;11.274;2023-09-18T05:55:42;94224.91;;;20.63;61.76
81274;BME280;70753;47.908;11.274;2023-09-18T05:58:08;94220.72;;;20.89;61.50
81274;BME280;70753;47.908;11.274;2023-09-18T06:00:33;94224.97;;;20.90;61.88
81274;BME280;70753;47.908;11.274;2023-09-18T06:02:59;94223.56;;;20.77;62.46
81274;BME280;70753;47.908;11.274;2023-09-18T06:05:26;94220.97;;;21.03;61.98
81274;BME280;70753;47.908;11.274;2023-09-18T06:07:51;94211.78;;;20.88;62.45
81274;BME280;70753;47.908;11.274;2023-09-18T06:10:18;94213.50;;;21.19;61.88
81274;BME280;70753;47.908;11.274;2023-09-18T06:12:45;94215.31;;;21.34;61.99
81274;BME280;70753;47.908;11.274;2023-09-18T06:15:10;94213.16;;;21.47;61.57
81274;BME280;70753;47.908;11.274;2023-09-18T06:17:37;94216.97;;;21.42;62.77
81274;BME280;70753;47.908;11.274;2023-09-18T06:20:03;94208.78;;;21.65;61.78
81274;BME280;70753;47.908;11.274;2023-09-18T06:22:28;94221.91;;;21.63;62.01
81274;BME280;70753;47.908;11.274;2023-09-18T06:24:53;94219.81;;;21.75;62.13
81274;BME280;70753;47.908;11.274;2023-09-18T06:27:20;94227.16;;;21.75;62.39
81274;BME280;70753;47.908;11.274;2023-09-18T06:29:47;94232.88;;;21.92;62.56
81274;BME280;70753;47.908;11.274;2023-09-18T06:32:12;94231.75;;;21.97;61.82
81274;BME280;70753;47.908;11.274;2023-09-18T06:34:38;94241.31;;;21.87;62.77
81274;BME280;70753;47.908;11.274;2023-09-18T06:37:04;94245.25;;;21.67;62.74
81274;BME280;70753;47.908;11.274;2023-09-18T06:39:29;94256.22;;;21.74;63.26
81274;BME280;70753;47.908;11.274;2023-09-18T06:41:55;94267.09;;;22.00;63.32
81274;BME280;70753;47.908;11.274;2023-09-18T06:44:22;94265.09;;;22.24;62.43
81274;BME280;70753;47.908;11.274;2023-09-18T06:46:47;94263.84;;;22.18;62.80
81274;BME280;70753;47.908;11.274;2023-09-18T06:49:13;94270.19;;;22.29;62.00
81274;BME280;70753;47.908;11.274;2023-09-18T06:51:38;94276.47;;;22.33;62.62
81274;BME280;70753;47.908;11.274;2023-09-18T06:54:03;94271.03;;;22.33;62.30
81274;BME280;70753;47.908;11.274;2023-09-18T06:56:30;94276.31;;;22.52;61.20
81274;BME280;70753;47.908;11.274;2023-09-18T06:58:55;94284.72;;;22.69;58.07
81274;BME280;70753;47.908;11.274;2023-09-18T07:01:22;94289.84;;;22.78;58.12
81274;BME280;70753;47.908;11.274;2023-09-18T07:03:48;94295.41;;;22.88;58.75
81274;BME280;70753;47.908;11.274;2023-09-18T07:06:13;94296.00;;;23.08;58.47
81274;BME280;70753;47.908;11.274;2023-09-18T07:08:39;94303.09;;;23.20;58.06
81274;BME280;70753;47.908;11.274;2023-09-18T07:11:04;94310.75;;;23.07;58.73
81274;BME280;70753;47.908;11.274;2023-09-18T07:13:30;94297.63;;;23.16;57.84
81274;BME280;70753;47.908;11.274;2023-09-18T07:15:55;94309.13;;;22.99;56.86
81274;BME280;70753;47.908;11.274;2023-09-18T07:18:22;94310.69;;;22.67;58.74
81274;BME280;70753;47.908;11.274;2023-09-18T07:20:48;94310.75;;;23.07;58.09
81274;BME280;70753;47.908;11.274;2023-09-18T07:23:13;94310.22;;;23.31;54.50
81274;BME280;70753;47.908;11.274;2023-09-18T07:25:39;94300.34;;;23.16;50.76
81274;BME280;70753;47.908;11.274;2023-09-18T07:28:05;94299.09;;;23.43;50.43
81274;BME280;70753;47.908;11.274;2023-09-18T07:30:30;94296.94;;;23.67;49.91
81274;BME280;70753;47.908;11.274;2023-09-18T07:32:56;94298.06;;;23.58;48.35
81274;BME280;70753;47.908;11.274;2023-09-18T07:35:23;94305.25;;;23.84;46.76
81274;BME280;70753;47.908;11.274;2023-09-18T07:37:49;94304.56;;;23.94;46.56
81274;BME280;70753;47.908;11.274;2023-09-18T07:40:14;94300.00;;;24.05;47.03
81274;BME280;70753;47.908;11.274;2023-09-18T07:42:39;94300.75;;;24.02;47.33
81274;BME280;70753;47.908;11.274;2023-09-18T07:45:06;94292.25;;;24.11;47.51
81274;BME280;70753;47.908;11.274;2023-09-18T07:47:31;94293.06;;;24.15;46.47
81274;BME280;70753;47.908;11.274;2023-09-18T07:49:57;94300.25;;;23.90;47.58
81274;BME280;70753;47.908;11.274;2023-09-18T07:52:23;94315.19;;;24.06;47.06
81274;BME280;70753;47.908;11.274;2023-09-18T07:54:49;94313.97;;;24.04;46.47
81274;BME280;70753;47.908;11.274;2023-09-18T07:57:15;94322.22;;;24.11;46.80
81274;BME280;70753;47.908;11.274;2023-09-18T07:59:41;94329.50;;;24.00;47.38
81274;BME280;70753;47.908;11.274;2023-09-18T08:02:06;94339.66;;;24.03;46.74
81274;BME280;70753;47.908;11.274;2023-09-18T08:04:32;94338.25;;;23.76;48.70
81274;BME280;70753;47.908;11.274;2023-09-18T08:06:57;94345.09;;;24.03;48.72
81274;BME280;70753;47.908;11.274;2023-09-18T08:09:25;94349.69;;;23.95;48.92
81274;BME280;70753;47.908;11.274;2023-09-18T08:11:51;94356.44;;;24.05;49.49
81274;BME280;70753;47.908;11.274;2023-09-18T08:14:16;94359.06;;;24.01;48.39
81274;BME280;70753;47.908;11.274;2023-09-18T08:16:41;94382.56;;;24.16;47.94
81274;BME280;70753;47.908;11.274;2023-09-18T08:19:07;94397.75;;;23.37;50.97
81274;BME280;70753;47.908;11.274;2023-09-18T08:21:33;94416.25;;;22.65;53.11
81274;BME280;70753;47.908;11.274;2023-09-18T08:23:58;94414.06;;;23.04;51.99
81274;BME280;70753;47.908;11.274;2023-09-18T08:26:25;94425.47;;;23.49;50.62
81274;BME280;70753;47.908;11.274;2023-09-18T08:28:50;94427.25;;;23.35;51.60
81274;BME280;70753;47.908;11.274;2023-09-18T08:31:16;94427.97;;;23.61;50.98
81274;BME280;70753;47.908;11.274;2023-09-18T08:33:41;94422.63;;;23.39;51.96
81274;BME280;70753;47.908;11.274;2023-09-18T08:36:06;94437.63;;;23.55;51.24
81274;BME280;70753;47.908;11.274;2023-09-18T08:38:32;94428.69;;;23.58;50.38
81274;BME280;70753;47.908;11.274;2023-09-18T08:40:58;94429.25;;;23.38;51.14
81274;BME280;70753;47.908;11.274;2023-09-18T08:43:25;94427.66;;;23.33;51.53
81274;BME280;70753;47.908;11.274;2023-09-18T08:45:52;94440.44;;;23.33;51.57
81274;BME280;70753;47.908;11.274;2023-09-18T08:48:18;94440.72;;;23.24;51.74
81274;BME280;70753;47.908;11.274;2023-09-18T08:50:45;94442.69;;;23.27;52.18
81274;BME280;70753;47.908;11.274;2023-09-18T08:53:11;94449.91;;;23.13;52.41
81274;BME280;70753;47.908;11.274;2023-09-18T08:55:36;94440.72;;;23.24;52.76
81274;BME280;70753;47.908;11.274;2023-09-18T08:58:02;94446.38;;;23.38;52.77
81274;BME280;70753;47.908;11.274;2023-09-18T09:00:29;94447.59;;;23.44;53.25
81274;BME280;70753;47.908;11.274;2023-09-18T09:02:55;94452.47;;;23.32;54.23
81274;BME280;70753;47.908;11.274;2023-09-18T09:05:21;94453.75;;;23.75;52.38
81274;BME280;70753;47.908;11.274;2023-09-18T09:07:46;94442.09;;;23.78;52.46
81274;BME280;70753;47.908;11.274;2023-09-18T09:10:12;94443.75;;;23.86;52.04
81274;BME280;70753;47.908;11.274;2023-09-18T09:13:03;94446.59;;;24.00;51.34
81274;BME280;70753;47.908;11.274;2023-09-18T09:15:43;94435.50;;;24.15;51.67
81274;BME280;70753;47.908;11.274;2023-09-18T09:18:08;94439.44;;;24.21;50.97
81274;BME280;70753;47.908;11.274;2023-09-18T09:20:34;94443.06;;;24.36;51.54
81274;BME280;70753;47.908;11.274;2023-09-18T09:23:00;94448.41;;;24.25;52.56
81274;BME280;70753;47.908;11.274;2023-09-18T09:25:27;94456.84;;;24.57;51.51
81274;BME280;70753;47.908;11.274;2023-09-18T09:27:53;94444.56;;;24.77;50.07
81274;BME280;70753;47.908;11.274;2023-09-18T09:30:20;94445.66;;;24.73;51.16
81274;BME280;70753;47.908;11.274;2023-09-18T09:32:49;94453.25;;;25.00;49.66
81274;BME280;70753;47.908;11.274;2023-09-18T09:35:22;94462.28;;;25.11;50.36
81274;BME280;70753;47.908;11.274;2023-09-18T09:37:48;94471.22;;;25.05;50.16
81274;BME280;70753;47.908;11.274;2023-09-18T09:40:14;94463.91;;;25.30;48.88
81274;BME280;70753;47.908;11.274;2023-09-18T09:42:40;94468.13;;;25.13;49.64
81274;BME280;70753;47.908;11.274;2023-09-18T09:45:11;94463.41;;;25.07;50.40
81274;BME280;70753;47.908;11.274;2023-09-18T09:47:37;94464.16;;;25.04;49.40
81274;BME280;70753;47.908;11.274;2023-09-18T09:50:07;94453.88;;;24.76;50.71
81274;BME280;70753;47.908;11.274;2023-09-18T09:52:33;94450.66;;;24.64;51.37
81274;BME280;70753;47.908;11.274;2023-09-18T09:54:58;94447.50;;;24.58;51.04
81274;BME280;70753;47.908;11.274;2023-09-18T09:57:24;94448.38;;;24.69;51.59
81274;BME280;70753;47.908;11.274;2023-09-18T09:59:49;94446.19;;;24.92;50.07
81274;BME280;70753;47.908;11.274;2023-09-18T10:02:16;94445.91;;;25.08;50.60
81274;BME280;70753;47.908;11.274;2023-09-18T10:04:43;94448.53;;;24.94;51.31
81274;BME280;70753;47.908;11.274;2023-09-18T10:07:10;94448.66;;;25.15;50.13
81274;BME280;70753;47.908;11.274;2023-09-18T10:09:38;94446.34;;;25.24;49.86
81274;BME280;70753;47.908;11.274;2023-09-18T10:12:10;94455.44;;;25.49;50.77
81274;BME280;70753;47.908;11.274;2023-09-18T10:14:36;94468.72;;;25.51;50.97
81274;BME280;70753;47.908;11.274;2023-09-18T10:17:10;94470.69;;;25.54;49.94
81274;BME280;70753;47.908;11.274;2023-09-18T10:19:40;94471.31;;;25.23;51.11
81274;BME280;70753;47.908;11.274;2023-09-18T10:22:20;94479.53;;;25.37;49.72
81274;BME280;70753;47.908;11.274;2023-09-18T10:24:47;94476.47;;;24.77;49.85
81274;BME280;70753;47.908;11.274;2023-09-18T10:27:16;94467.84;;;24.71;50.88
81274;BME280;70753;47.908;11.274;2023-09-18T10:29:43;94472.50;;;24.67;49.82
81274;BME280;70753;47.908;11.274;2023-09-18T10:32:08;94475.78;;;24.39;49.66
81274;BME280;70753;47.908;11.274;2023-09-18T10:34:35;94483.06;;;24.25;50.42
81274;BME280;70753;47.908;11.274;2023-09-18T10:37:02;94491.63;;;24.27;50.83
81274;BME280;70753;47.908;11.274;2023-09-18T10:39:29;94493.28;;;24.35;50.40
81274;BME280;70753;47.908;11.274;2023-09-18T10:41:56;94501.00;;;24.29;50.40
81274;BME280;70753;47.908;11.274;2023-09-18T10:44:23;94493.91;;;24.18;50.39
81274;BME280;70753;47.908;11.274;2023-09-18T10:46:49;94503.41;;;23.98;50.85
81274;BME280;70753;47.908;11.274;2023-09-18T10:49:15;94497.47;;;23.89;51.23
81274;BME280;70753;47.908;11.274;2023-09-18T10:51:41;94503.50;;;23.72;51.66
81274;BME280;70753;47.908;11.274;2023-09-18T10:54:07;94490.66;;;23.69;51.63
81274;BME280;70753;47.908;11.274;2023-09-18T10:56:35;94495.91;;;23.88;51.40
81274;BME280;70753;47.908;11.274;2023-09-18T10:59:01;94504.31;;;23.76;52.31
81274;BME280;70753;47.908;11.274;2023-09-18T11:01:28;94499.41;;;23.55;52.15
81274;BME280;70753;47.908;11.274;2023-09-18T11:03:57;94523.47;;;23.23;53.87
81274;BME280;70753;47.908;11.274;2023-09-18T11:06:23;94523.28;;;23.09;54.07
81274;BME280;70753;47.908;11.274;2023-09-18T11:08:49;94521.72;;;22.82;54.41
81274;BME280;70753;47.908;11.274;2023-09-18T11:11:18;94537.59;;;22.57;55.06
81274;BME280;70753;47.908;11.274;2023-09-18T11:13:50;94540.47;;;22.64;54.68
81274;BME280;70753;47.908;11.274;2023-09-18T11:16:18;94558.75;;;22.45;55.88
81274;BME280;70753;47.908;11.274;2023-09-18T11:18:46;94554.22;;;22.30;56.64
81274;BME280;70753;47.908;11.274;2023-09-18T11:21:12;94574.13;;;22.14;56.82
81274;BME280;70753;47.908;11.274;2023-09-18T11:23:38;94573.72;;;21.93;57.68
81274;BME280;70753;47.908;11.274;2023-09-18T11:26:04;94570.31;;;21.96;57.60
81274;BME280;70753;47.908;11.274;2023-09-18T11:28:32;94580.59;;;21.87;57.17
81274;BME280;70753;47.908;11.274;2023-09-18T11:30:59;94596.97;;;21.56;58.48
81274;BME280;70753;47.908;11.274;2023-09-18T11:33:32;94589.81;;;21.29;59.39
81274;BME280;70753;47.908;11.274;2023-09-18T11:36:02;94585.25;;;21.52;60.76
81274;BME280;70753;47.908;11.274;2023-09-18T11:38:28;94581.25;;;21.65;60.34
81274;BME280;70753;47.908;11.274;2023-09-18T11:40:53;94595.56;;;21.62;60.36
81274;BME280;70753;47.908;11.274;2023-09-18T11:43:24;94596.41;;;21.12;63.72
81274;BME280;70753;47.908;11.274;2023-09-18T11:45:50;94591.25;;;21.07;62.92
81274;BME280;70753;47.908;11.274;2023-09-18T11:48:18;94598.34;;;20.81;64.69
81274;BME280;70753;47.908;11.274;2023-09-18T11:50:44;94603.41;;;20.82;64.06
81274;BME280;70753;47.908;11.274;2023-09-18T11:53:11;94604.22;;;20.67;64.04
81274;BME280;70753;47.908;11.274;2023-09-18T11:55:37;94611.66;;;20.70;64.70
81274;BME280;70753;47.908;11.274;2023-09-18T11:58:04;94623.94;;;20.36;65.91
81274;BME280;70753;47.908;11.274;2023-09-18T12:03:34;94627.94;;;20.42;67.04
81274;BME280;70753;47.908;11.274;2023-09-18T12:06:01;94633.66;;;19.82;68.81
81274;BME280;70753;47.908;11.274;2023-09-18T12:08:29;94641.03;;;19.97;68.57
81274;BME280;70753;47.908;11.274;2023-09-18T12:10:55;94647.56;;;19.96;67.53
81274;BME280;70753;47.908;11.274;2023-09-18T12:13:21;94645.22;;;19.55;69.88
81274;BME280;70753;47.908;11.274;2023-09-18T12:15:47;94651.22;;;19.76;70.30
81274;BME280;70753;47.908;11.274;2023-09-18T12:18:14;94651.34;;;20.07;68.31
81274;BME280;70753;47.908;11.274;2023-09-18T12:20:46;94666.44;;;20.20;68.82
81274;BME280;70753;47.908;11.274;2023-09-18T12:23:12;94666.88;;;19.82;70.28
81274;BME280;70753;47.908;11.274;2023-09-18T12:25:38;94674.38;;;19.61;70.37
81274;BME280;70753;47.908;11.274;2023-09-18T12:28:06;94676.44;;;19.92;68.92
81274;BME280;70753;47.908;11.274;2023-09-18T12:30:32;94668.81;;;19.82;69.93
81274;BME280;70753;47.908;11.274;2023-09-18T12:32:59;94675.66;;;19.03;72.21
81274;BME280;70753;47.908;11.274;2023-09-18T12:35:26;94678.69;;;18.90;73.69
81274;BME280;70753;47.908;11.274;2023-09-18T12:37:53;94674.97;;;18.94;73.24
81274;BME280;70753;47.908;11.274;2023-09-18T12:40:23;94679.03;;;18.76;74.37
81274;BME280;70753;47.908;11.274;2023-09-18T12:42:49;94677.88;;;19.13;73.45
81274;BME280;70753;47.908;11.274;2023-09-18T12:45:15;94680.25;;;19.03;73.19
81274;BME280;70753;47.908;11.274;2023-09-18T12:47:41;94679.22;;;18.71;75.25
81274;BME280;70753;47.908;11.274;2023-09-18T12:50:07;94678.13;;;18.72;75.56